Time,TemperatureF,DewpointF,PressureIn,WindDirection,WindDirectionDegrees,WindSpeedMPH,WindSpeedGustMPH,Humidity,HourlyPrecipIn,Conditions,Clouds,dailyrainin,SoftwareType,DateUTC
2013-05-08 00:02:00,55.8,53.8,30.00,SSW,200,0.0,0.0,93,0.00,,,0.00,Wunderground v.1.15,2013-05-08 04:02:00,
2013-05-08 00:06:00,55.7,53.7,30.00,SSW,200,0.0,0.0,93,0.00,,,0.00,Wunderground v.1.15,2013-05-08 04:06:00,
2013-05-08 00:10:00,55.6,53.6,30.00,SSW,200,0.0,0.0,93,0.00,,,0.00,Wunderground v.1.15,2013-05-08 04:10:00,
2013-05-08 00:14:00,55.6,53.6,30.00,SSW,200,0.0,0.0,93,0.00,,,0.00,Wunderground v.1.15,2013-05-08 04:14:00,
2013-05-08 00:20:00,55.5,53.8,30.00,SSW,200,0.0,0.0,94,0.00,,,0.00,Wunderground v.1.15,2013-05-08 04:20:00,
2013-05-08 00:26:00,55.5,53.8,30.00,SSW,200,0.0,0.0,94,0.00,,,0.00,Wunderground v.1.15,2013-05-08 04:26:00,
2013-05-08 00:32:00,55.5,53.8,30.00,SSW,200,0.0,0.0,94,0.00,,,0.00,Wunderground v.1.15,2013-05-08 04:32:00,
2013-05-08 00:38:00,55.5,53.8,30.00,SSW,200,0.0,0.0,94,0.00,,,0.00,Wunderground v.1.15,2013-05-08 04:38:00,
2013-05-08 00:44:00,55.6,53.9,30.00,SSW,200,0.0,0.0,94,0.00,,,0.00,Wunderground v.1.15,2013-05-08 04:44:00,
2013-05-08 00:50:00,55.7,54.3,30.00,SSW,200,0.0,0.0,95,0.00,,,0.00,Wunderground v.1.15,2013-05-08 04:50:00,
2013-05-08 00:56:00,55.8,54.1,30.00,SSW,200,0.0,0.0,94,0.00,,,0.00,Wunderground v.1.15,2013-05-08 04:56:00,
2013-05-08 01:02:00,55.8,54.1,30.00,SSW,200,0.0,0.0,94,0.00,,,0.00,Wunderground v.1.15,2013-05-08 05:02:00,
2013-05-08 01:08:00,55.8,54.1,30.00,SSW,200,0.0,0.0,94,0.00,,,0.00,Wunderground v.1.15,2013-05-08 05:08:00,
2013-05-08 01:14:00,55.8,53.8,29.99,SSW,200,0.0,0.0,93,0.00,,,0.00,Wunderground v.1.15,2013-05-08 05:14:00,
2013-05-08 01:20:00,55.8,53.8,29.99,SSW,200,0.0,0.0,93,0.00,,,0.00,Wunderground v.1.15,2013-05-08 05:20:00,
2013-05-08 01:26:00,55.8,53.8,30.00,SSW,200,0.0,0.0,93,0.00,,,0.00,Wunderground v.1.15,2013-05-08 05:26:00,
2013-05-08 01:32:00,55.8,53.8,30.00,SSW,200,0.0,0.0,93,0.00,,,0.00,Wunderground v.1.15,2013-05-08 05:32:00,
2013-05-08 01:38:00,55.8,53.8,29.99,SSW,200,0.0,0.0,93,0.00,,,0.00,Wunderground v.1.15,2013-05-08 05:38:00,
2013-05-08 01:44:00,55.8,54.1,29.99,SSW,200,0.0,0.0,94,0.00,,,0.00,Wunderground v.1.15,2013-05-08 05:44:00,
2013-05-08 01:50:00,55.8,54.1,29.99,SSW,200,0.0,0.0,94,0.00,,,0.00,Wunderground v.1.15,2013-05-08 05:50:00,
2013-05-08 01:56:00,55.8,53.8,29.99,SSW,200,0.0,0.0,93,0.00,,,0.00,Wunderground v.1.15,2013-05-08 05:56:00,
2013-05-08 02:02:00,55.8,54.1,29.99,SSW,200,0.0,0.0,94,0.00,,,0.00,Wunderground v.1.15,2013-05-08 06:02:00,
2013-05-08 02:08:00,55.8,54.1,29.99,SSW,200,0.0,0.0,94,0.00,,,0.00,Wunderground v.1.15,2013-05-08 06:08:00,
2013-05-08 02:14:00,55.8,54.1,29.99,SSW,200,0.0,0.0,94,0.00,,,0.00,Wunderground v.1.15,2013-05-08 06:14:00,
2013-05-08 02:20:00,55.8,54.1,29.99,SSW,200,0.0,0.0,94,0.00,,,0.00,Wunderground v.1.15,2013-05-08 06:20:00,
2013-05-08 02:26:00,55.8,54.1,29.98,SSW,200,0.0,0.0,94,0.00,,,0.00,Wunderground v.1.15,2013-05-08 06:26:00,
2013-05-08 02:32:00,55.8,53.8,29.98,SSW,200,0.0,0.0,93,0.00,,,0.00,Wunderground v.1.15,2013-05-08 06:32:00,
2013-05-08 02:38:00,55.8,53.8,29.99,SSW,200,0.0,0.0,93,0.00,,,0.00,Wunderground v.1.15,2013-05-08 06:38:00,
2013-05-08 02:44:00,55.8,53.8,29.98,SSW,200,0.0,0.0,93,0.00,,,0.00,Wunderground v.1.15,2013-05-08 06:44:00,
2013-05-08 02:50:00,55.8,53.8,29.98,WSW,238,0.0,0.0,93,0.00,,,0.00,Wunderground v.1.15,2013-05-08 06:50:00,
2013-05-08 02:56:00,55.8,53.8,29.98,WSW,240,0.0,2.0,93,0.00,,,0.00,Wunderground v.1.15,2013-05-08 06:56:00,
2013-05-08 03:02:00,55.8,53.8,29.98,WSW,246,0.0,0.0,93,0.00,,,0.00,Wunderground v.1.15,2013-05-08 07:02:00,
2013-05-08 03:08:00,55.8,53.5,29.98,WSW,248,0.0,0.0,92,0.00,,,0.00,Wunderground v.1.15,2013-05-08 07:08:00,
2013-05-08 03:14:00,55.8,53.5,29.98,WSW,248,0.0,0.0,92,0.00,,,0.00,Wunderground v.1.15,2013-05-08 07:14:00,
2013-05-08 03:20:00,55.8,53.5,29.98,WSW,254,0.0,0.0,92,0.00,,,0.00,Wunderground v.1.15,2013-05-08 07:20:00,
2013-05-08 03:26:00,55.8,53.5,29.98,WSW,254,0.0,1.0,92,0.00,,,0.00,Wunderground v.1.15,2013-05-08 07:26:00,
2013-05-08 03:32:00,55.8,53.5,29.98,WSW,254,0.0,0.0,92,0.00,,,0.00,Wunderground v.1.15,2013-05-08 07:32:00,
2013-05-08 03:38:00,55.8,53.5,29.98,WSW,254,0.0,0.0,92,0.00,,,0.00,Wunderground v.1.15,2013-05-08 07:38:00,
2013-05-08 03:44:00,55.8,53.5,29.98,WSW,254,0.0,0.0,92,0.00,,,0.00,Wunderground v.1.15,2013-05-08 07:44:00,
2013-05-08 03:50:00,55.7,53.7,29.98,WSW,254,0.0,0.0,93,0.00,,,0.00,Wunderground v.1.15,2013-05-08 07:50:00,
2013-05-08 03:56:00,55.7,53.7,29.98,WSW,254,0.0,0.0,93,0.00,,,0.00,Wunderground v.1.15,2013-05-08 07:56:00,
2013-05-08 04:02:00,55.7,53.4,29.98,WSW,254,0.0,0.0,92,0.00,,,0.00,Wunderground v.1.15,2013-05-08 08:02:00,
2013-05-08 04:08:00,55.6,53.3,29.99,WSW,254,0.0,0.0,92,0.00,,,0.00,Wunderground v.1.15,2013-05-08 08:08:00,
2013-05-08 04:14:00,55.5,53.2,29.99,WSW,254,0.0,0.0,92,0.00,,,0.00,Wunderground v.1.15,2013-05-08 08:14:00,
2013-05-08 04:20:00,55.4,53.1,29.99,WSW,254,0.0,0.0,92,0.00,,,0.00,Wunderground v.1.15,2013-05-08 08:20:00,
2013-05-08 04:26:00,55.1,52.8,29.99,WSW,254,0.0,0.0,92,0.00,,,0.00,Wunderground v.1.15,2013-05-08 08:26:00,
2013-05-08 04:32:00,54.8,52.5,29.99,WSW,254,0.0,0.0,92,0.00,,,0.00,Wunderground v.1.15,2013-05-08 08:32:00,
2013-05-08 04:38:00,54.4,52.1,29.99,WSW,254,0.0,0.0,92,0.00,,,0.00,Wunderground v.1.15,2013-05-08 08:38:00,
2013-05-08 04:44:00,54.1,51.8,29.99,WSW,254,0.0,0.0,92,0.00,,,0.00,Wunderground v.1.15,2013-05-08 08:44:00,
2013-05-08 04:50:00,53.7,51.4,29.99,WSW,254,0.0,0.0,92,0.00,,,0.00,Wunderground v.1.15,2013-05-08 08:50:00,
2013-05-08 04:56:00,53.5,51.2,29.99,WSW,254,0.0,0.0,92,0.00,,,0.00,Wunderground v.1.15,2013-05-08 08:56:00,
2013-05-08 05:02:00,53.2,51.2,29.99,WSW,254,0.0,0.0,93,0.00,,,0.00,Wunderground v.1.15,2013-05-08 09:02:00,
2013-05-08 05:08:00,52.9,50.6,29.99,WSW,254,0.0,0.0,92,0.00,,,0.00,Wunderground v.1.15,2013-05-08 09:08:00,
2013-05-08 05:14:00,52.6,50.6,29.99,WSW,254,0.0,0.0,93,0.00,,,0.00,Wunderground v.1.15,2013-05-08 09:14:00,
2013-05-08 05:20:00,52.3,50.3,29.99,WSW,254,0.0,0.0,93,0.00,,,0.00,Wunderground v.1.15,2013-05-08 09:20:00,
2013-05-08 05:26:00,52.0,50.0,29.99,WSW,254,0.0,0.0,93,0.00,,,0.00,Wunderground v.1.15,2013-05-08 09:26:00,
2013-05-08 05:32:00,51.8,49.8,29.99,WSW,254,0.0,0.0,93,0.00,,,0.00,Wunderground v.1.15,2013-05-08 09:32:00,
2013-05-08 05:38:00,51.6,49.9,29.99,WSW,254,0.0,0.0,94,0.00,,,0.00,Wunderground v.1.15,2013-05-08 09:38:00,
2013-05-08 05:44:00,51.3,49.6,29.99,WSW,254,0.0,0.0,94,0.00,,,0.00,Wunderground v.1.15,2013-05-08 09:44:00,
2013-05-08 05:50:00,51.1,49.4,29.99,WSW,254,0.0,0.0,94,0.00,,,0.00,Wunderground v.1.15,2013-05-08 09:50:00,
2013-05-08 05:56:00,51.0,49.3,29.99,WSW,254,0.0,0.0,94,0.00,,,0.00,Wunderground v.1.15,2013-05-08 09:56:00,
2013-05-08 06:02:00,50.8,49.1,29.99,WSW,254,0.0,0.0,94,0.00,,,0.00,Wunderground v.1.15,2013-05-08 10:02:00,
2013-05-08 06:08:00,50.6,48.9,29.99,WSW,254,0.0,0.0,94,0.00,,,0.00,Wunderground v.1.15,2013-05-08 10:08:00,
2013-05-08 06:14:00,50.5,48.8,29.99,WSW,254,0.0,0.0,94,0.00,,,0.00,Wunderground v.1.15,2013-05-08 10:14:00,
2013-05-08 06:20:00,50.3,48.9,30.00,WSW,254,0.0,0.0,95,0.00,,,0.00,Wunderground v.1.15,2013-05-08 10:20:00,
2013-05-08 06:26:00,50.2,48.8,30.00,WSW,254,0.0,0.0,95,0.00,,,0.00,Wunderground v.1.15,2013-05-08 10:26:00,
2013-05-08 06:32:00,50.1,48.7,30.00,WSW,254,0.0,0.0,95,0.00,,,0.00,Wunderground v.1.15,2013-05-08 10:32:00,
2013-05-08 06:38:00,50.1,48.7,30.00,WSW,254,0.0,0.0,95,0.00,,,0.00,Wunderground v.1.15,2013-05-08 10:38:00,
2013-05-08 06:44:00,50.0,48.6,30.00,WSW,254,0.0,0.0,95,0.00,,,0.00,Wunderground v.1.15,2013-05-08 10:44:00,
2013-05-08 06:50:00,50.0,48.6,30.01,WSW,254,0.0,0.0,95,0.00,,,0.00,Wunderground v.1.15,2013-05-08 10:50:00,
2013-05-08 06:56:00,50.0,48.6,30.01,WSW,254,0.0,0.0,95,0.00,,,0.00,Wunderground v.1.15,2013-05-08 10:56:00,
2013-05-08 07:02:00,50.0,48.6,30.01,WSW,254,0.0,0.0,95,0.00,,,0.00,Wunderground v.1.15,2013-05-08 11:02:00,
2013-05-08 07:08:00,50.0,48.9,30.01,WSW,254,0.0,0.0,96,0.00,,,0.00,Wunderground v.1.15,2013-05-08 11:08:00,
2013-05-08 07:14:00,50.1,49.0,30.02,WSW,254,0.0,0.0,96,0.00,,,0.00,Wunderground v.1.15,2013-05-08 11:14:00,
2013-05-08 07:20:00,50.5,49.4,30.02,WSW,254,0.0,0.0,96,0.00,,,0.00,Wunderground v.1.15,2013-05-08 11:20:00,
2013-05-08 07:26:00,51.1,50.0,30.02,WSW,254,0.0,0.0,96,0.00,,,0.00,Wunderground v.1.15,2013-05-08 11:26:00,
2013-05-08 07:32:00,51.9,51.1,30.02,WSW,251,0.0,0.0,97,0.00,,,0.00,Wunderground v.1.15,2013-05-08 11:32:00,
2013-05-08 07:38:00,52.6,51.8,30.02,WSW,251,0.0,0.0,97,0.00,,,0.00,Wunderground v.1.15,2013-05-08 11:38:00,
2013-05-08 07:44:00,53.3,52.5,30.02,WSW,251,0.0,0.0,97,0.00,,,0.00,Wunderground v.1.15,2013-05-08 11:44:00,
2013-05-08 07:50:00,53.8,53.0,30.02,WSW,257,0.0,0.0,97,0.00,,,0.00,Wunderground v.1.15,2013-05-08 11:50:00,
2013-05-08 07:56:00,54.4,53.6,30.02,WSW,257,0.0,0.0,97,0.00,,,0.00,Wunderground v.1.15,2013-05-08 11:56:00,
2013-05-08 08:02:00,54.9,54.1,30.02,WSW,257,0.0,0.0,97,0.00,,,0.00,Wunderground v.1.15,2013-05-08 12:02:00,
2013-05-08 08:08:00,55.5,54.7,30.03,WSW,258,0.0,1.0,97,0.00,,,0.00,Wunderground v.1.15,2013-05-08 12:08:00,
2013-05-08 08:14:00,56.3,55.5,30.03,West,274,1.0,1.0,97,0.00,,,0.00,Wunderground v.1.15,2013-05-08 12:14:00,
2013-05-08 08:20:00,57.1,55.1,30.03,West,281,1.0,1.0,93,0.00,,,0.00,Wunderground v.1.15,2013-05-08 12:20:00,
2013-05-08 08:26:00,58.1,55.8,30.03,WNW,293,1.0,3.0,92,0.00,,,0.00,Wunderground v.1.15,2013-05-08 12:26:00,
2013-05-08 08:32:00,58.8,56.2,30.03,NW,319,1.0,2.0,91,0.00,,,0.00,Wunderground v.1.15,2013-05-08 12:32:00,
2013-05-08 08:38:00,59.6,56.7,30.03,WNW,288,1.0,2.0,90,0.00,,,0.01,Wunderground v.1.15,2013-05-08 12:38:00,
2013-05-08 08:44:00,60.1,56.2,30.04,NNW,327,2.0,2.0,87,0.00,,,0.01,Wunderground v.1.15,2013-05-08 12:44:00,
2013-05-08 08:50:00,60.0,55.5,30.04,WNW,298,2.0,2.0,85,0.00,,,0.01,Wunderground v.1.15,2013-05-08 12:50:00,
2013-05-08 08:56:00,59.7,55.2,30.04,NW,321,2.0,3.0,85,0.00,,,0.01,Wunderground v.1.15,2013-05-08 12:56:00,
2013-05-08 09:02:00,59.6,56.0,30.04,NW,306,2.0,3.0,88,0.00,,,0.01,Wunderground v.1.15,2013-05-08 13:02:00,
2013-05-08 09:08:00,59.8,55.6,30.05,NW,320,2.0,3.0,86,0.00,,,0.01,Wunderground v.1.15,2013-05-08 13:08:00,
2013-05-08 09:14:00,60.0,55.8,30.05,WNW,282,2.0,3.0,86,0.00,,,0.01,Wunderground v.1.15,2013-05-08 13:14:00,
2013-05-08 09:20:00,60.5,56.3,30.05,NW,318,1.0,1.0,86,0.00,,,0.01,Wunderground v.1.15,2013-05-08 13:20:00,
2013-05-08 09:26:00,60.7,56.2,30.05,WNW,297,1.0,3.0,85,0.00,,,0.01,Wunderground v.1.15,2013-05-08 13:26:00,
2013-05-08 09:32:00,60.7,56.2,30.05,West,277,1.0,3.0,85,0.00,,,0.01,Wunderground v.1.15,2013-05-08 13:32:00,
2013-05-08 09:38:00,60.9,56.0,30.05,NW,324,1.0,3.0,84,0.00,,,0.01,Wunderground v.1.15,2013-05-08 13:38:00,
2013-05-08 09:44:00,61.6,56.7,30.05,WNW,284,1.0,2.0,84,0.00,,,0.01,Wunderground v.1.15,2013-05-08 13:44:00,
2013-05-08 09:50:00,62.0,56.8,30.05,West,278,1.0,3.0,83,0.00,,,0.01,Wunderground v.1.15,2013-05-08 13:50:00,
2013-05-08 09:56:00,62.2,57.0,30.05,NW,316,1.0,3.0,83,0.00,,,0.01,Wunderground v.1.15,2013-05-08 13:56:00,
2013-05-08 10:02:00,63.1,57.9,30.05,NNE,21,1.0,2.0,83,0.00,,,0.01,Wunderground v.1.15,2013-05-08 14:02:00,
2013-05-08 10:08:00,63.6,57.7,30.05,WSW,249,2.0,3.0,81,0.00,,,0.01,Wunderground v.1.15,2013-05-08 14:08:00,
2013-05-08 10:14:00,63.9,57.6,30.05,West,270,2.0,2.0,80,0.00,,,0.01,Wunderground v.1.15,2013-05-08 14:14:00,
2013-05-08 10:20:00,64.7,58.4,30.05,NNE,31,1.0,1.0,80,0.00,,,0.01,Wunderground v.1.15,2013-05-08 14:20:00,
2013-05-08 10:26:00,65.0,58.3,30.05,WNW,297,1.0,2.0,79,0.00,,,0.01,Wunderground v.1.15,2013-05-08 14:26:00,
2013-05-08 10:32:00,65.3,58.6,30.05,NW,320,2.0,4.0,79,0.00,,,0.01,Wunderground v.1.15,2013-05-08 14:32:00,
2013-05-08 10:38:00,66.1,58.7,30.05,NNW,341,2.0,4.0,77,0.00,,,0.01,Wunderground v.1.15,2013-05-08 14:38:00,
2013-05-08 10:44:00,67.0,60.6,30.05,NNE,15,2.0,2.0,80,0.00,,,0.01,Wunderground v.1.15,2013-05-08 14:44:00,
2013-05-08 10:50:00,68.0,59.8,30.05,NW,316,2.0,4.0,75,0.00,,,0.01,Wunderground v.1.15,2013-05-08 14:50:00,
2013-05-08 10:56:00,68.7,59.3,30.05,NNW,338,1.0,4.0,72,0.00,,,0.01,Wunderground v.1.15,2013-05-08 14:56:00,
2013-05-08 11:02:00,69.4,58.4,30.05,WNW,301,1.0,3.0,68,0.00,,,0.01,Wunderground v.1.15,2013-05-08 15:02:00,
2013-05-08 11:08:00,69.9,60.1,30.05,NNE,18,1.0,3.0,71,0.00,,,0.01,Wunderground v.1.15,2013-05-08 15:08:00,
2013-05-08 11:14:00,70.2,58.3,30.05,NNW,328,1.0,2.0,66,0.00,,,0.01,Wunderground v.1.15,2013-05-08 15:14:00,
2013-05-08 11:20:00,70.1,59.0,30.05,NNW,344,1.0,2.0,68,0.00,,,0.01,Wunderground v.1.15,2013-05-08 15:20:00,
2013-05-08 11:26:00,70.4,59.7,30.05,NNW,331,1.0,3.0,69,0.00,,,0.01,Wunderground v.1.15,2013-05-08 15:26:00,
2013-05-08 11:32:00,71.5,61.6,30.05,North,352,1.0,2.0,71,0.00,,,0.01,Wunderground v.1.15,2013-05-08 15:32:00,
2013-05-08 11:38:00,71.8,59.8,30.05,NNE,25,2.0,2.0,66,0.00,,,0.01,Wunderground v.1.15,2013-05-08 15:38:00,
2013-05-08 11:44:00,71.5,59.5,30.05,North,359,2.0,2.0,66,0.00,,,0.01,Wunderground v.1.15,2013-05-08 15:44:00,
2013-05-08 11:50:00,71.9,59.1,30.04,NE,46,2.0,2.0,64,0.00,,,0.01,Wunderground v.1.15,2013-05-08 15:50:00,
2013-05-08 11:56:00,72.7,60.3,30.04,North,351,2.0,3.0,65,0.00,,,0.01,Wunderground v.1.15,2013-05-08 15:56:00,
2013-05-08 12:02:00,73.4,60.5,30.04,NW,324,2.0,2.0,64,0.00,,,0.01,Wunderground v.1.15,2013-05-08 16:02:00,
2013-05-08 12:08:00,73.9,60.5,30.04,NNW,335,2.0,8.0,63,0.00,,,0.01,Wunderground v.1.15,2013-05-08 16:08:00,
2013-05-08 12:14:00,73.8,58.6,30.04,NW,314,3.0,5.0,59,0.00,,,0.01,Wunderground v.1.15,2013-05-08 16:14:00,
2013-05-08 12:20:00,72.9,58.2,30.03,NE,55,2.0,2.0,60,0.00,,,0.01,Wunderground v.1.15,2013-05-08 16:20:00,
2013-05-08 12:26:00,73.2,59.4,30.03,NW,313,1.0,3.0,62,0.00,,,0.01,Wunderground v.1.15,2013-05-08 16:26:00,
2013-05-08 12:32:00,73.3,61.7,30.03,NNE,18,2.0,5.0,67,0.00,,,0.01,Wunderground v.1.15,2013-05-08 16:32:00,
2013-05-08 12:38:00,73.7,59.4,30.03,NE,53,2.0,5.0,61,0.00,,,0.01,Wunderground v.1.15,2013-05-08 16:38:00,
2013-05-08 12:44:00,73.7,57.5,30.03,East,86,3.0,3.0,57,0.00,,,0.01,Wunderground v.1.15,2013-05-08 16:44:00,
2013-05-08 12:50:00,73.4,57.2,30.03,East,89,3.0,5.0,57,0.00,,,0.01,Wunderground v.1.15,2013-05-08 16:50:00,
2013-05-08 12:56:00,73.7,58.0,30.02,NW,310,3.0,5.0,58,0.00,,,0.01,Wunderground v.1.15,2013-05-08 16:56:00,
2013-05-08 13:02:00,74.2,59.4,30.02,NE,34,2.0,3.0,60,0.00,,,0.01,Wunderground v.1.15,2013-05-08 17:02:00,
2013-05-08 13:08:00,74.6,59.8,30.02,NNW,340,2.0,4.0,60,0.00,,,0.01,Wunderground v.1.15,2013-05-08 17:08:00,
2013-05-08 13:14:00,74.2,58.5,30.02,North,11,3.0,4.0,58,0.00,,,0.01,Wunderground v.1.15,2013-05-08 17:14:00,
2013-05-08 13:20:00,73.6,58.9,30.02,NW,309,3.0,3.0,60,0.00,,,0.01,Wunderground v.1.15,2013-05-08 17:20:00,
2013-05-08 13:26:00,73.9,58.7,30.01,NW,312,2.0,3.0,59,0.00,,,0.01,Wunderground v.1.15,2013-05-08 17:26:00,
2013-05-08 13:32:00,74.0,60.2,30.01,North,10,2.0,3.0,62,0.00,,,0.01,Wunderground v.1.15,2013-05-08 17:32:00,
2013-05-08 13:38:00,75.1,58.3,30.01,NE,49,2.0,3.0,56,0.00,,,0.01,Wunderground v.1.15,2013-05-08 17:38:00,
2013-05-08 13:44:00,74.9,56.6,30.01,North,353,2.0,4.0,53,0.00,,,0.01,Wunderground v.1.15,2013-05-08 17:44:00,
2013-05-08 13:50:00,74.0,57.3,30.01,NE,39,3.0,3.0,56,0.00,,,0.01,Wunderground v.1.15,2013-05-08 17:50:00,
2013-05-08 13:56:00,74.7,56.9,30.01,NE,49,2.0,3.0,54,0.00,,,0.01,Wunderground v.1.15,2013-05-08 17:56:00,
2013-05-08 14:02:00,75.1,56.3,30.01,ENE,57,2.0,5.0,52,0.00,,,0.01,Wunderground v.1.15,2013-05-08 18:02:00,
2013-05-08 14:08:00,75.6,57.8,30.00,WNW,288,2.0,5.0,54,0.00,,,0.01,Wunderground v.1.15,2013-05-08 18:08:00,
2013-05-08 14:14:00,75.9,59.1,30.01,NNE,33,2.0,4.0,56,0.00,,,0.01,Wunderground v.1.15,2013-05-08 18:14:00,
2013-05-08 14:20:00,75.8,58.5,30.01,NNE,12,2.0,2.0,55,0.00,,,0.01,Wunderground v.1.15,2013-05-08 18:20:00,
2013-05-08 14:26:00,75.3,57.0,30.01,NNE,24,2.0,2.0,53,0.00,,,0.01,Wunderground v.1.15,2013-05-08 18:26:00,
2013-05-08 14:32:00,74.4,55.6,30.00,NNW,329,2.0,2.0,52,0.00,,,0.01,Wunderground v.1.15,2013-05-08 18:32:00,
2013-05-08 14:38:00,74.4,57.2,30.00,NNW,347,2.0,3.0,55,0.00,,,0.01,Wunderground v.1.15,2013-05-08 18:38:00,
2013-05-08 14:44:00,74.4,56.7,30.00,NW,326,2.0,3.0,54,0.00,,,0.01,Wunderground v.1.15,2013-05-08 18:44:00,
2013-05-08 14:50:00,75.2,58.9,30.00,NW,306,2.0,5.0,57,0.00,,,0.01,Wunderground v.1.15,2013-05-08 18:50:00,
2013-05-08 14:56:00,76.3,56.8,30.00,NNW,332,3.0,5.0,51,0.00,,,0.01,Wunderground v.1.15,2013-05-08 18:56:00,
2013-05-08 15:02:00,76.3,59.4,30.00,NE,37,2.0,2.0,56,0.00,,,0.01,Wunderground v.1.15,2013-05-08 19:02:00,
2013-05-08 15:08:00,76.1,56.1,30.00,North,358,2.0,5.0,50,0.00,,,0.01,Wunderground v.1.15,2013-05-08 19:08:00,
2013-05-08 15:14:00,76.2,59.4,30.00,NW,318,2.0,4.0,56,0.00,,,0.01,Wunderground v.1.15,2013-05-08 19:14:00,
2013-05-08 15:20:00,75.7,57.9,30.00,NE,56,2.0,2.0,54,0.00,,,0.01,Wunderground v.1.15,2013-05-08 19:20:00,
2013-05-08 15:26:00,75.2,57.4,30.00,NE,43,2.0,2.0,54,0.00,,,0.01,Wunderground v.1.15,2013-05-08 19:26:00,
2013-05-08 15:32:00,75.2,57.4,30.00,NNE,18,2.0,2.0,54,0.00,,,0.01,Wunderground v.1.15,2013-05-08 19:32:00,
2013-05-08 15:38:00,75.7,60.4,30.00,North,360,2.0,2.0,59,0.00,,,0.01,Wunderground v.1.15,2013-05-08 19:38:00,
2013-05-08 15:44:00,76.4,58.5,30.00,NNW,339,3.0,3.0,54,0.00,,,0.01,Wunderground v.1.15,2013-05-08 19:44:00,
2013-05-08 15:50:00,77.0,60.1,30.00,NE,48,2.0,5.0,56,0.00,,,0.01,Wunderground v.1.15,2013-05-08 19:50:00,
2013-05-08 15:56:00,76.8,57.8,29.99,ENE,72,2.0,5.0,52,0.00,,,0.01,Wunderground v.1.15,2013-05-08 19:56:00,
2013-05-08 16:02:00,76.2,56.2,29.99,NE,39,3.0,3.0,50,0.00,,,0.01,Wunderground v.1.15,2013-05-08 20:02:00,
2013-05-08 16:08:00,75.2,56.9,29.99,NE,52,3.0,5.0,53,0.00,,,0.01,Wunderground v.1.15,2013-05-08 20:08:00,
2013-05-08 16:14:00,76.0,57.6,29.99,East,81,3.0,5.0,53,0.00,,,0.01,Wunderground v.1.15,2013-05-08 20:14:00,
2013-05-08 16:20:00,75.9,58.1,29.99,NE,53,3.0,3.0,54,0.00,,,0.01,Wunderground v.1.15,2013-05-08 20:20:00,
2013-05-08 16:26:00,75.8,59.0,29.99,NNE,21,1.0,3.0,56,0.00,,,0.01,Wunderground v.1.15,2013-05-08 20:26:00,
2013-05-08 16:32:00,76.2,59.4,29.99,East,81,2.0,6.0,56,0.00,,,0.01,Wunderground v.1.15,2013-05-08 20:32:00,
2013-05-08 16:38:00,76.6,57.7,29.99,NNE,30,3.0,6.0,52,0.00,,,0.01,Wunderground v.1.15,2013-05-08 20:38:00,
2013-05-08 16:44:00,76.4,58.0,29.99,NE,49,3.0,3.0,53,0.00,,,0.01,Wunderground v.1.15,2013-05-08 20:44:00,
2013-05-08 16:50:00,76.3,58.9,29.99,NNE,23,2.0,2.0,55,0.00,,,0.01,Wunderground v.1.15,2013-05-08 20:50:00,
2013-05-08 16:56:00,76.1,58.8,29.99,ENE,73,2.0,3.0,55,0.00,,,0.01,Wunderground v.1.15,2013-05-08 20:56:00,
2013-05-08 17:02:00,75.6,58.3,29.99,NNE,33,2.0,4.0,55,0.00,,,0.01,Wunderground v.1.15,2013-05-08 21:02:00,
2013-05-08 17:08:00,76.0,59.2,29.99,ENE,61,2.0,4.0,56,0.00,,,0.01,Wunderground v.1.15,2013-05-08 21:08:00,
2013-05-08 17:14:00,76.3,59.4,29.98,NE,48,2.0,4.0,56,0.00,,,0.01,Wunderground v.1.15,2013-05-08 21:14:00,
2013-05-08 17:20:00,76.1,58.8,29.98,North,9,2.0,2.0,55,0.00,,,0.01,Wunderground v.1.15,2013-05-08 21:20:00,
2013-05-08 17:26:00,76.0,59.7,29.98,NE,37,2.0,4.0,57,0.00,,,0.01,Wunderground v.1.15,2013-05-08 21:26:00,
2013-05-08 17:32:00,76.0,59.7,29.98,NE,52,2.0,2.0,57,0.00,,,0.01,Wunderground v.1.15,2013-05-08 21:32:00,
2013-05-08 17:38:00,76.1,58.2,29.99,ENE,78,2.0,3.0,54,0.00,,,0.01,Wunderground v.1.15,2013-05-08 21:38:00,
2013-05-08 17:44:00,75.7,58.9,29.99,ENE,61,2.0,3.0,56,0.00,,,0.01,Wunderground v.1.15,2013-05-08 21:44:00,
2013-05-08 17:50:00,75.0,57.7,29.99,NE,56,2.0,3.0,55,0.00,,,0.01,Wunderground v.1.15,2013-05-08 21:50:00,
2013-05-08 17:56:00,74.6,58.4,29.99,East,89,2.0,3.0,57,0.00,,,0.01,Wunderground v.1.15,2013-05-08 21:56:00,
2013-05-08 18:02:00,74.0,57.3,29.99,ENE,70,2.0,2.0,56,0.00,,,0.01,Wunderground v.1.15,2013-05-08 22:02:00,
2013-05-08 18:08:00,73.7,57.5,29.99,NE,56,1.0,2.0,57,0.00,,,0.01,Wunderground v.1.15,2013-05-08 22:08:00,
2013-05-08 18:14:00,73.4,57.7,29.99,ENE,57,1.0,1.0,58,0.00,,,0.01,Wunderground v.1.15,2013-05-08 22:14:00,
2013-05-08 18:20:00,73.1,57.9,29.99,ENE,59,1.0,1.0,59,0.00,,,0.01,Wunderground v.1.15,2013-05-08 22:20:00,
2013-05-08 18:26:00,72.8,58.1,29.99,ENE,57,0.0,1.0,60,0.00,,,0.01,Wunderground v.1.15,2013-05-08 22:26:00,
2013-05-08 18:32:00,72.6,57.9,29.99,WNW,298,0.0,2.0,60,0.00,,,0.01,Wunderground v.1.15,2013-05-08 22:32:00,
2013-05-08 18:38:00,72.4,57.7,29.99,NNE,29,0.0,2.0,60,0.00,,,0.01,Wunderground v.1.15,2013-05-08 22:38:00,
2013-05-08 18:44:00,72.3,58.1,29.99,NE,45,1.0,1.0,61,0.00,,,0.01,Wunderground v.1.15,2013-05-08 22:44:00,
2013-05-08 18:50:00,72.2,58.5,29.99,NE,43,1.0,1.0,62,0.00,,,0.01,Wunderground v.1.15,2013-05-08 22:50:00,
2013-05-08 18:56:00,72.2,58.9,29.99,NE,43,0.0,1.0,63,0.00,,,0.01,Wunderground v.1.15,2013-05-08 22:56:00,
2013-05-08 19:02:00,72.4,58.6,29.99,NNE,20,0.0,0.0,62,0.00,,,0.01,Wunderground v.1.15,2013-05-08 23:02:00,
2013-05-08 19:08:00,72.8,58.6,29.99,NW,315,1.0,1.0,61,0.00,,,0.01,Wunderground v.1.15,2013-05-08 23:08:00,
2013-05-08 19:14:00,72.9,58.7,29.99,North,2,0.0,1.0,61,0.00,,,0.01,Wunderground v.1.15,2013-05-08 23:14:00,
2013-05-08 19:20:00,72.7,58.0,30.00,North,2,0.0,0.0,60,0.00,,,0.01,Wunderground v.1.15,2013-05-08 23:20:00,
2013-05-08 19:26:00,72.5,58.7,30.00,North,2,0.0,0.0,62,0.00,,,0.01,Wunderground v.1.15,2013-05-08 23:26:00,
2013-05-08 19:32:00,72.2,58.5,30.00,North,2,0.0,0.0,62,0.00,,,0.01,Wunderground v.1.15,2013-05-08 23:32:00,
2013-05-08 19:38:00,71.9,58.2,30.00,North,2,0.0,0.0,62,0.00,,,0.01,Wunderground v.1.15,2013-05-08 23:38:00,
2013-05-08 19:44:00,71.7,58.0,30.00,North,2,0.0,0.0,62,0.00,,,0.01,Wunderground v.1.15,2013-05-08 23:44:00,
2013-05-08 19:50:00,71.5,58.2,30.01,North,2,0.0,0.0,63,0.00,,,0.01,Wunderground v.1.15,2013-05-08 23:50:00,
2013-05-08 19:56:00,71.3,58.1,30.00,North,2,0.0,0.0,63,0.00,,,0.01,Wunderground v.1.15,2013-05-08 23:56:00,
2013-05-08 20:02:00,71.1,58.3,30.01,North,2,0.0,0.0,64,0.00,,,0.01,Wunderground v.1.15,2013-05-09 00:02:00,
2013-05-08 20:08:00,70.6,58.3,30.01,North,2,0.0,0.0,65,0.00,,,0.01,Wunderground v.1.15,2013-05-09 00:08:00,
2013-05-08 20:14:00,70.2,58.3,30.01,North,2,0.0,0.0,66,0.00,,,0.01,Wunderground v.1.15,2013-05-09 00:14:00,
2013-05-08 20:20:00,69.6,58.2,30.01,North,2,0.0,0.0,67,0.00,,,0.01,Wunderground v.1.15,2013-05-09 00:20:00,
2013-05-08 20:26:00,69.0,58.4,30.01,North,2,0.0,0.0,69,0.00,,,0.01,Wunderground v.1.15,2013-05-09 00:26:00,
2013-05-08 20:32:00,68.3,58.5,30.01,North,2,0.0,0.0,71,0.00,,,0.01,Wunderground v.1.15,2013-05-09 00:32:00,
2013-05-08 20:38:00,67.7,58.7,30.02,North,2,0.0,0.0,73,0.00,,,0.01,Wunderground v.1.15,2013-05-09 00:38:00,
2013-05-08 20:44:00,67.1,58.5,30.02,North,2,0.0,0.0,74,0.00,,,0.01,Wunderground v.1.15,2013-05-09 00:44:00,
2013-05-08 20:50:00,66.7,58.5,30.02,North,2,0.0,0.0,75,0.00,,,0.01,Wunderground v.1.15,2013-05-09 00:50:00,
2013-05-08 20:56:00,66.2,58.4,30.02,North,2,0.0,0.0,76,0.00,,,0.01,Wunderground v.1.15,2013-05-09 00:56:00,
2013-05-08 21:02:00,65.7,58.7,30.02,North,2,0.0,0.0,78,0.00,,,0.01,Wunderground v.1.15,2013-05-09 01:02:00,
2013-05-08 21:08:00,65.3,58.6,30.03,North,2,0.0,0.0,79,0.00,,,0.01,Wunderground v.1.15,2013-05-09 01:08:00,
2013-05-08 21:14:00,64.8,58.5,30.03,North,2,0.0,0.0,80,0.00,,,0.01,Wunderground v.1.15,2013-05-09 01:14:00,
2013-05-08 21:20:00,64.4,58.4,30.03,North,2,0.0,0.0,81,0.00,,,0.01,Wunderground v.1.15,2013-05-09 01:20:00,
2013-05-08 21:26:00,64.1,58.8,30.03,North,2,0.0,0.0,83,0.00,,,0.01,Wunderground v.1.15,2013-05-09 01:26:00,
2013-05-08 21:32:00,63.9,59.3,30.04,North,2,0.0,0.0,85,0.00,,,0.01,Wunderground v.1.15,2013-05-09 01:32:00,
2013-05-08 21:38:00,63.8,59.2,30.04,North,2,0.0,0.0,85,0.00,,,0.01,Wunderground v.1.15,2013-05-09 01:38:00,
2013-05-08 21:44:00,63.7,59.1,30.04,North,2,0.0,0.0,85,0.00,,,0.01,Wunderground v.1.15,2013-05-09 01:44:00,
2013-05-08 21:50:00,63.7,59.4,30.04,North,2,0.0,0.0,86,0.00,,,0.01,Wunderground v.1.15,2013-05-09 01:50:00,
2013-05-08 21:56:00,63.7,59.4,30.04,North,2,0.0,0.0,86,0.00,,,0.01,Wunderground v.1.15,2013-05-09 01:56:00,
2013-05-08 22:02:00,63.8,59.5,30.04,North,2,0.0,0.0,86,0.00,,,0.01,Wunderground v.1.15,2013-05-09 02:02:00,
2013-05-08 22:08:00,63.8,59.5,30.05,North,2,0.0,0.0,86,0.00,,,0.01,Wunderground v.1.15,2013-05-09 02:08:00,
2013-05-08 22:14:00,63.8,59.9,30.05,WNW,295,0.0,3.0,87,0.00,,,0.01,Wunderground v.1.15,2013-05-09 02:14:00,
2013-05-08 22:20:00,64.6,59.7,30.05,NW,316,1.0,1.0,84,0.00,,,0.01,Wunderground v.1.15,2013-05-09 02:20:00,
2013-05-08 22:26:00,65.0,59.4,30.05,North,8,1.0,1.0,82,0.00,,,0.01,Wunderground v.1.15,2013-05-09 02:26:00,
2013-05-08 22:32:00,65.0,59.0,30.06,North,6,0.0,0.0,81,0.00,,,0.01,Wunderground v.1.15,2013-05-09 02:32:00,
2013-05-08 22:38:00,64.9,58.9,30.06,North,6,0.0,0.0,81,0.00,,,0.01,Wunderground v.1.15,2013-05-09 02:38:00,
2013-05-08 22:44:00,64.7,58.7,30.06,North,6,0.0,0.0,81,0.00,,,0.01,Wunderground v.1.15,2013-05-09 02:44:00,
2013-05-08 22:50:00,64.4,58.8,30.06,North,10,0.0,0.0,82,0.00,,,0.01,Wunderground v.1.15,2013-05-09 02:50:00,
2013-05-08 22:56:00,64.2,58.6,30.06,North,10,0.0,0.0,82,0.00,,,0.01,Wunderground v.1.15,2013-05-09 02:56:00,
2013-05-08 23:02:00,63.9,58.6,30.06,North,10,0.0,0.0,83,0.00,,,0.01,Wunderground v.1.15,2013-05-09 03:02:00,
2013-05-08 23:08:00,63.7,58.8,30.06,North,10,0.0,0.0,84,0.00,,,0.01,Wunderground v.1.15,2013-05-09 03:08:00,
2013-05-08 23:14:00,63.4,58.5,30.06,North,10,0.0,0.0,84,0.00,,,0.01,Wunderground v.1.15,2013-05-09 03:14:00,
2013-05-08 23:20:00,63.2,58.6,30.05,North,10,0.0,0.0,85,0.00,,,0.01,Wunderground v.1.15,2013-05-09 03:20:00,
2013-05-08 23:26:00,62.9,58.3,30.05,North,10,0.0,0.0,85,0.00,,,0.01,Wunderground v.1.15,2013-05-09 03:26:00,
2013-05-08 23:32:00,62.7,58.5,30.06,North,10,0.0,0.0,86,0.00,,,0.01,Wunderground v.1.15,2013-05-09 03:32:00,
2013-05-08 23:38:00,62.4,58.2,30.06,North,10,0.0,0.0,86,0.00,,,0.01,Wunderground v.1.15,2013-05-09 03:38:00,
2013-05-08 23:44:00,62.1,58.2,30.06,North,10,0.0,0.0,87,0.00,,,0.01,Wunderground v.1.15,2013-05-09 03:44:00,
2013-05-08 23:50:00,61.8,57.9,30.05,North,10,0.0,0.0,87,0.00,,,0.01,Wunderground v.1.15,2013-05-09 03:50:00,
2013-05-08 23:56:00,61.6,58.0,30.05,North,10,0.0,0.0,88,0.00,,,0.01,Wunderground v.1.15,2013-05-09 03:56:00,